Ferry Katsuragi — JI3611 — position and weather

sailwx.info

Track history (hours):
 
Tides and Currents Weather Stations Pressure Air Temp Water Temp Dewpoint Dewpoint Depression Visibility Wind Speed Wind Dir Waves Ship Positions

Ferry Katsuragi

Last reported at 2015-May-25 00:10 UTC. Time now 2015-May-28 16:16 UTC.
Position N 34°38' E 135°28'.

Length 108 m; draft 4 m.

Type: Passenger vessel. MMSI: 431301245.

Date/timePositionNaut miles runAvg speedWind from/ knotsBaromVisibWave heightAir tempDewpointWater temp
2015-May-25 00:10N 34°38' E 135°28'1 1.9
2015-May-24 23:33N 34°37' E 135°27'8 7.5
2015-May-24 22:33N 34°35' E 135°19'1312.5
2015-May-24 21:32N 34°26' E 135°08'1210.6
2015-May-24 20:24N 34°16' E 134°59'8 8.5
2015-May-24 19:29N 34°10' E 134°54'4 1.5
2015-May-24 16:33N 34°08' E 134°49'1616.4
2015-May-24 15:33N 34°13' E 135°08'6 5.7
2015-May-24 14:33N 34°12' E 135°01'12 4.1
2015-May-24 11:32N 34°07' E 134°47'1515.0
2015-May-24 10:33N 34°12' E 135°04'4 4.0
2015-May-24 09:33N 34°13' E 135°09'21 6.0
2015-May-24 06:07N 34°06' E 134°45'1014.5
2015-May-24 05:27N 34°09' E 134°56'1112.3
2015-May-24 04:33N 34°13' E 135°09'7 6.5
2015-May-24 03:33N 34°11' E 135°01'5 1.6
2015-May-24 00:19N 34°09' E 134°55'1114.8
2015-May-23 23:33N 34°13' E 135°08'3 3.1
2015-May-23 22:33N 34°12' E 135°04'8 2.0
2015-May-23 18:32N 34°09' E 134°55'1211.9
2015-May-23 17:33N 34°13' E 135°09'0 0.0
2015-May-23 16:33N 34°13' E 135°09'0 0.0
2015-May-23 15:33N 34°13' E 135°09'7 6.8
2015-May-23 14:33N 34°12' E 135°01'10 3.4
2015-May-23 11:29N 34°08' E 134°49'1314.2
2015-May-23 10:33N 34°12' E 135°04'4 4.1
2015-May-23 09:33N 34°13' E 135°09'25 8.3
2015-May-23 06:30N 34°04' E 134°40'1614.1
2015-May-23 05:22N 34°10' E 134°58'911.6
2015-May-23 04:34N 34°13' E 135°09'6 6.5
2015-May-23 03:34N 34°11' E 135°01'6 1.9
2015-May-23 00:22N 34°08' E 134°55'1214.7
2015-May-22 23:33N 34°13' E 135°08'2 1.9
2015-May-22 22:33N 34°13' E 135°06'18 5.4
2015-May-22 19:11N 34°06' E 134°46'1013.6
2015-May-22 18:28N 34°09' E 134°57'1011.5
2015-May-22 17:33N 34°13' E 135°09'0 0.0
2015-May-22 16:33N 34°13' E 135°09'0 0.0
2015-May-22 15:33N 34°13' E 135°09'7 6.9
2015-May-22 14:33N 34°12' E 135°00'11 3.5
2015-May-22 11:29N 34°08' E 134°49'1314.4
2015-May-22 10:33N 34°12' E 135°04'4 3.8
2015-May-22 09:33N 34°13' E 135°08'20 5.8
2015-May-22 06:10N 34°06' E 134°46'1014.6
2015-May-22 05:29N 34°10' E 134°57'1010.5
2015-May-22 04:33N 34°13' E 135°09'7 6.8
2015-May-22 03:33N 34°12' E 135°01'6 1.7
2015-May-22 00:21N 34°08' E 134°55'1214.7
2015-May-21 23:34N 34°13' E 135°08'2 1.7
2015-May-21 22:34N 34°13' E 135°06'1714.8
2015-May-21 21:23N 34°06' E 134°47'1 0.4
2015-May-21 19:10N 34°06' E 134°46'913.7
2015-May-21 18:32N 34°09' E 134°56'1111.5
2015-May-21 17:33N 34°13' E 135°09'0 0.0
2015-May-21 16:33N 34°13' E 135°09'0 0.0
2015-May-21 15:33N 34°13' E 135°09'8 7.5
2015-May-21 14:33N 34°11' E 134°60'10 3.3
2015-May-21 11:28N 34°07' E 134°49'1314.7
2015-May-21 10:33N 34°12' E 135°04'4 4.0
2015-May-21 09:34N 34°13' E 135°09'11 2.7
2015-May-21 05:29N 34°09' E 134°56'1111.9
2015-May-21 04:34N 34°13' E 135°09'7 6.7
2015-May-21 03:33N 34°11' E 135°01'4 1.1
2015-May-21 00:16N 34°09' E 134°57'1014.5
2015-May-20 23:33N 34°13' E 135°08'2 1.7
2015-May-20 22:34N 34°13' E 135°06'18 5.3
2015-May-20 19:09N 34°06' E 134°46'913.6
2015-May-20 18:27N 34°09' E 134°57'1111.8
2015-May-20 17:33N 34°13' E 135°09'0 0.0
2015-May-20 16:33N 34°13' E 135°09'0 0.0
2015-May-20 15:33N 34°13' E 135°09'7 7.0
2015-May-20 14:33N 34°10' E 135°01'3 0.8
2015-May-20 10:33N 34°12' E 135°04'4 3.9
2015-May-20 09:33N 34°13' E 135°08'21 6.2
2015-May-20 06:08N 34°05' E 134°45'914.3
2015-May-20 05:31N 34°08' E 134°55'1313.1
2015-May-20 04:33N 34°13' E 135°09'7 7.0
2015-May-20 03:33N 34°10' E 135°01'3 1.0
2015-May-20 00:12N 34°09' E 134°57'1015.9
2015-May-19 23:34N 34°13' E 135°08'1 1.4
2015-May-19 22:33N 34°13' E 135°07'24 7.9
2015-May-19 19:32N 34°04' E 134°40'1413.9
2015-May-19 18:33N 34°08' E 134°56'1212.0
2015-May-19 17:34N 34°13' E 135°09'0 0.0
2015-May-19 16:33N 34°13' E 135°09'0 0.0
2015-May-19 15:33N 34°13' E 135°09'5 5.2
2015-May-19 14:33N 34°11' E 135°03'12 3.8
2015-May-19 11:27N 34°07' E 134°49'1314.9
2015-May-19 10:33N 34°12' E 135°04'4 3.7
2015-May-19 09:33N 34°13' E 135°08'20 6.0
2015-May-19 06:09N 34°06' E 134°45'914.3
2015-May-19 05:32N 34°09' E 134°55'1212.0
2015-May-19 04:33N 34°13' E 135°09'7 6.6
2015-May-19 03:33N 34°11' E 135°01'6 1.5
2015-May-18 23:33N 34°13' E 135°08'2 1.8
2015-May-18 22:34N 34°13' E 135°06'17 5.0
2015-May-18 19:06N 34°04' E 134°47'813.9
2015-May-18 18:32N 34°07' E 134°56'1212.0
2015-May-18 17:33N 34°13' E 135°09'0 0.0
2015-May-18 16:33N 34°13' E 135°09'0 0.0
2015-May-18 15:34N 34°13' E 135°09'7 6.8
2015-May-18 14:33N 34°12' E 135°00'4 1.1
2015-May-18 11:04N 34°10' E 134°56'714.0
2015-May-18 10:34N 34°12' E 135°04'3 3.3
2015-May-18 09:34N 34°13' E 135°08'20 5.8
2015-May-18 06:07N 34°06' E 134°46'814.4
2015-May-18 05:33N 34°09' E 134°55'1212.2
2015-May-18 04:33N 34°13' E 135°09'6 6.4
2015-May-18 03:33N 34°12' E 135°01'5 1.6
2015-May-18 00:19N 34°09' E 134°55'1114.7
2015-May-17 23:33N 34°13' E 135°08'2 1.8
2015-May-17 22:34N 34°13' E 135°06'18 5.4
2015-May-17 19:09N 34°06' E 134°45'1014.4
2015-May-17 18:29N 34°09' E 134°56'1111.9
2015-May-17 17:33N 34°13' E 135°09'0 0.0
2015-May-17 16:33N 34°13' E 135°09'0 0.0
2015-May-17 15:33N 34°13' E 135°09'8 7.4
2015-May-17 14:33N 34°09' E 135°01'12 3.8
2015-May-17 11:32N 34°07' E 134°47'1514.9
2015-May-17 10:33N 34°12' E 135°04'4 4.1
2015-May-17 09:34N 34°13' E 135°09'20 5.7
2015-May-17 06:06N 34°07' E 134°46'814.2
2015-May-17 05:33N 34°09' E 134°55'1212.1
2015-May-17 04:33N 34°13' E 135°09'7 6.6
2015-May-17 03:34N 34°11' E 135°01'9 2.9
2015-May-17 00:33N 34°08' E 134°51'1515.2
2015-May-16 23:33N 34°13' E 135°08'2 1.6
2015-May-16 22:33N 34°13' E 135°06'1514.6
2015-May-16 21:30N 34°07' E 134°49'5 2.5
2015-May-16 19:23N 34°05' E 134°43'1113.9
2015-May-16 18:33N 34°10' E 134°56'1111.1
2015-May-16 17:33N 34°13' E 135°09'0 0.0
2015-May-16 16:33N 34°13' E 135°09'0 0.0
2015-May-16 15:33N 34°13' E 135°09'6 6.3
2015-May-16 14:34N 34°11' E 135°01'11 3.6
2015-May-16 11:29N 34°07' E 134°49'1414.7
2015-May-16 10:33N 34°12' E 135°04'4 3.7
2015-May-16 09:33N 34°13' E 135°09'10 2.6
2015-May-16 05:29N 34°10' E 134°56'1011.2
2015-May-16 04:33N 34°13' E 135°09'7 7.1
2015-May-16 03:34N 34°11' E 135°00'1 0.3
2015-May-16 00:03N 34°12' E 134°59'714.7
2015-May-15 23:34N 34°13' E 135°08'3 2.7
2015-May-15 22:33N 34°12' E 135°05'18 5.3
2015-May-15 19:13N 34°05' E 134°45'1013.8
2015-May-15 18:29N 34°10' E 134°56'1111.6
2015-May-15 17:33N 34°13' E 135°09'0 0.0
2015-May-15 16:33N 34°13' E 135°09'0 0.0
2015-May-15 15:33N 34°13' E 135°09'7 6.8
2015-May-15 14:32N 34°11' E 135°01'10 3.1
2015-May-15 11:25N 34°08' E 134°49'1314.5
2015-May-15 10:33N 34°12' E 135°04'4 4.1
2015-May-15 09:34N 34°13' E 135°09'19 5.6
2015-May-15 06:08N 34°07' E 134°47'914.1
2015-May-15 05:32N 34°10' E 134°56'1110.9
2015-May-15 04:33N 34°13' E 135°09'7 6.8
2015-May-15 03:33N 34°11' E 135°01'3 0.9
2015-May-15 00:11N 34°10' E 134°57'  
Track history (hours):
 
Tides and Currents Weather Stations Pressure Air Temp Water Temp Dewpoint Dewpoint Depression Visibility Wind Speed Wind Dir Waves Ship Positions

Ferry Katsuragi

Last reported at 2015-May-25 00:10 UTC. Time now 2015-May-28 16:16 UTC.
Position N 34°38' E 135°28'.

Length 108 m; draft 4 m.

Type: Passenger vessel. MMSI: 431301245.

Date/timePositionNaut miles runAvg speedWind from/ knotsBaromVisibWave heightAir tempDewpointWater temp
2015-May-25 00:10N 34°38' E 135°28'1 1.9
2015-May-24 23:33N 34°37' E 135°27'8 7.5
2015-May-24 22:33N 34°35' E 135°19'1312.5
2015-May-24 21:32N 34°26' E 135°08'1210.6
2015-May-24 20:24N 34°16' E 134°59'8 8.5
2015-May-24 19:29N 34°10' E 134°54'4 1.5
2015-May-24 16:33N 34°08' E 134°49'1616.4
2015-May-24 15:33N 34°13' E 135°08'6 5.7
2015-May-24 14:33N 34°12' E 135°01'12 4.1
2015-May-24 11:32N 34°07' E 134°47'1515.0
2015-May-24 10:33N 34°12' E 135°04'4 4.0
2015-May-24 09:33N 34°13' E 135°09'21 6.0
2015-May-24 06:07N 34°06' E 134°45'1014.5
2015-May-24 05:27N 34°09' E 134°56'1112.3
2015-May-24 04:33N 34°13' E 135°09'7 6.5
2015-May-24 03:33N 34°11' E 135°01'5 1.6
2015-May-24 00:19N 34°09' E 134°55'1114.8
2015-May-23 23:33N 34°13' E 135°08'3 3.1
2015-May-23 22:33N 34°12' E 135°04'8 2.0
2015-May-23 18:32N 34°09' E 134°55'1211.9
2015-May-23 17:33N 34°13' E 135°09'0 0.0
2015-May-23 16:33N 34°13' E 135°09'0 0.0
2015-May-23 15:33N 34°13' E 135°09'7 6.8
2015-May-23 14:33N 34°12' E 135°01'10 3.4
2015-May-23 11:29N 34°08' E 134°49'1314.2
2015-May-23 10:33N 34°12' E 135°04'4 4.1
2015-May-23 09:33N 34°13' E 135°09'25 8.3
2015-May-23 06:30N 34°04' E 134°40'1614.1
2015-May-23 05:22N 34°10' E 134°58'911.6
2015-May-23 04:34N 34°13' E 135°09'6 6.5
2015-May-23 03:34N 34°11' E 135°01'6 1.9
2015-May-23 00:22N 34°08' E 134°55'1214.7
2015-May-22 23:33N 34°13' E 135°08'2 1.9
2015-May-22 22:33N 34°13' E 135°06'18 5.4
2015-May-22 19:11N 34°06' E 134°46'1013.6
2015-May-22 18:28N 34°09' E 134°57'1011.5
2015-May-22 17:33N 34°13' E 135°09'0 0.0
2015-May-22 16:33N 34°13' E 135°09'0 0.0
2015-May-22 15:33N 34°13' E 135°09'7 6.9
2015-May-22 14:33N 34°12' E 135°00'11 3.5
2015-May-22 11:29N 34°08' E 134°49'1314.4
2015-May-22 10:33N 34°12' E 135°04'4 3.8
2015-May-22 09:33N 34°13' E 135°08'20 5.8
2015-May-22 06:10N 34°06' E 134°46'1014.6
2015-May-22 05:29N 34°10' E 134°57'1010.5
2015-May-22 04:33N 34°13' E 135°09'7 6.8
2015-May-22 03:33N 34°12' E 135°01'6 1.7
2015-May-22 00:21N 34°08' E 134°55'1214.7
2015-May-21 23:34N 34°13' E 135°08'2 1.7
2015-May-21 22:34N 34°13' E 135°06'1714.8
2015-May-21 21:23N 34°06' E 134°47'1 0.4
2015-May-21 19:10N 34°06' E 134°46'913.7
2015-May-21 18:32N 34°09' E 134°56'1111.5
2015-May-21 17:33N 34°13' E 135°09'0 0.0
2015-May-21 16:33N 34°13' E 135°09'0 0.0
2015-May-21 15:33N 34°13' E 135°09'8 7.5
2015-May-21 14:33N 34°11' E 134°60'10 3.3
2015-May-21 11:28N 34°07' E 134°49'1314.7
2015-May-21 10:33N 34°12' E 135°04'4 4.0
2015-May-21 09:34N 34°13' E 135°09'11 2.7
2015-May-21 05:29N 34°09' E 134°56'1111.9
2015-May-21 04:34N 34°13' E 135°09'7 6.7
2015-May-21 03:33N 34°11' E 135°01'4 1.1
2015-May-21 00:16N 34°09' E 134°57'1014.5
2015-May-20 23:33N 34°13' E 135°08'2 1.7
2015-May-20 22:34N 34°13' E 135°06'18 5.3
2015-May-20 19:09N 34°06' E 134°46'913.6
2015-May-20 18:27N 34°09' E 134°57'1111.8
2015-May-20 17:33N 34°13' E 135°09'0 0.0
2015-May-20 16:33N 34°13' E 135°09'0 0.0
2015-May-20 15:33N 34°13' E 135°09'7 7.0
2015-May-20 14:33N 34°10' E 135°01'3 0.8
2015-May-20 10:33N 34°12' E 135°04'4 3.9
2015-May-20 09:33N 34°13' E 135°08'21 6.2
2015-May-20 06:08N 34°05' E 134°45'914.3
2015-May-20 05:31N 34°08' E 134°55'1313.1
2015-May-20 04:33N 34°13' E 135°09'7 7.0
2015-May-20 03:33N 34°10' E 135°01'3 1.0
2015-May-20 00:12N 34°09' E 134°57'1015.9
2015-May-19 23:34N 34°13' E 135°08'1 1.4
2015-May-19 22:33N 34°13' E 135°07'24 7.9
2015-May-19 19:32N 34°04' E 134°40'1413.9
2015-May-19 18:33N 34°08' E 134°56'1212.0
2015-May-19 17:34N 34°13' E 135°09'0 0.0
2015-May-19 16:33N 34°13' E 135°09'0 0.0
2015-May-19 15:33N 34°13' E 135°09'5 5.2
2015-May-19 14:33N 34°11' E 135°03'12 3.8
2015-May-19 11:27N 34°07' E 134°49'1314.9
2015-May-19 10:33N 34°12' E 135°04'4 3.7
2015-May-19 09:33N 34°13' E 135°08'20 6.0
2015-May-19 06:09N 34°06' E 134°45'914.3
2015-May-19 05:32N 34°09' E 134°55'1212.0
2015-May-19 04:33N 34°13' E 135°09'7 6.6
2015-May-19 03:33N 34°11' E 135°01'6 1.5
2015-May-18 23:33N 34°13' E 135°08'2 1.8
2015-May-18 22:34N 34°13' E 135°06'17 5.0
2015-May-18 19:06N 34°04' E 134°47'813.9
2015-May-18 18:32N 34°07' E 134°56'1212.0
2015-May-18 17:33N 34°13' E 135°09'0 0.0
2015-May-18 16:33N 34°13' E 135°09'0 0.0
2015-May-18 15:34N 34°13' E 135°09'7 6.8
2015-May-18 14:33N 34°12' E 135°00'4 1.1
2015-May-18 11:04N 34°10' E 134°56'714.0
2015-May-18 10:34N 34°12' E 135°04'3 3.3
2015-May-18 09:34N 34°13' E 135°08'20 5.8
2015-May-18 06:07N 34°06' E 134°46'814.4
2015-May-18 05:33N 34°09' E 134°55'1212.2
2015-May-18 04:33N 34°13' E 135°09'6 6.4
2015-May-18 03:33N 34°12' E 135°01'5 1.6
2015-May-18 00:19N 34°09' E 134°55'1114.7
2015-May-17 23:33N 34°13' E 135°08'2 1.8
2015-May-17 22:34N 34°13' E 135°06'18 5.4
2015-May-17 19:09N 34°06' E 134°45'1014.4
2015-May-17 18:29N 34°09' E 134°56'1111.9
2015-May-17 17:33N 34°13' E 135°09'0 0.0
2015-May-17 16:33N 34°13' E 135°09'0 0.0
2015-May-17 15:33N 34°13' E 135°09'8 7.4
2015-May-17 14:33N 34°09' E 135°01'12 3.8
2015-May-17 11:32N 34°07' E 134°47'1514.9
2015-May-17 10:33N 34°12' E 135°04'4 4.1
2015-May-17 09:34N 34°13' E 135°09'20 5.7
2015-May-17 06:06N 34°07' E 134°46'814.2
2015-May-17 05:33N 34°09' E 134°55'1212.1
2015-May-17 04:33N 34°13' E 135°09'7 6.6
2015-May-17 03:34N 34°11' E 135°01'9 2.9
2015-May-17 00:33N 34°08' E 134°51'1515.2
2015-May-16 23:33N 34°13' E 135°08'2 1.6
2015-May-16 22:33N 34°13' E 135°06'1514.6
2015-May-16 21:30N 34°07' E 134°49'5 2.5
2015-May-16 19:23N 34°05' E 134°43'1113.9
2015-May-16 18:33N 34°10' E 134°56'1111.1
2015-May-16 17:33N 34°13' E 135°09'0 0.0
2015-May-16 16:33N 34°13' E 135°09'0 0.0
2015-May-16 15:33N 34°13' E 135°09'6 6.3
2015-May-16 14:34N 34°11' E 135°01'11 3.6
2015-May-16 11:29N 34°07' E 134°49'1414.7
2015-May-16 10:33N 34°12' E 135°04'4 3.7
2015-May-16 09:33N 34°13' E 135°09'10 2.6
2015-May-16 05:29N 34°10' E 134°56'1011.2
2015-May-16 04:33N 34°13' E 135°09'7 7.1
2015-May-16 03:34N 34°11' E 135°00'1 0.3
2015-May-16 00:03N 34°12' E 134°59'714.7
2015-May-15 23:34N 34°13' E 135°08'3 2.7
2015-May-15 22:33N 34°12' E 135°05'18 5.3
2015-May-15 19:13N 34°05' E 134°45'1013.8
2015-May-15 18:29N 34°10' E 134°56'1111.6
2015-May-15 17:33N 34°13' E 135°09'0 0.0
2015-May-15 16:33N 34°13' E 135°09'0 0.0
2015-May-15 15:33N 34°13' E 135°09'7 6.8
2015-May-15 14:32N 34°11' E 135°01'10 3.1
2015-May-15 11:25N 34°08' E 134°49'1314.5
2015-May-15 10:33N 34°12' E 135°04'4 4.1
2015-May-15 09:34N 34°13' E 135°09'19 5.6
2015-May-15 06:08N 34°07' E 134°47'914.1
2015-May-15 05:32N 34°10' E 134°56'1110.9
2015-May-15 04:33N 34°13' E 135°09'7 6.8
2015-May-15 03:33N 34°11' E 135°01'3 0.9
2015-May-15 00:11N 34°10' E 134°57'  

Dump ship's entire track history